sensor_id;sensor_type;location;lat;lon;timestamp;pressure;altitude;pressure_sealevel;temperature;humidity
48774;BME280;34576;0.000;0.000;2023-04-29T00:01:48;96447.31;;;17.94;68.46
48774;BME280;34576;0.000;0.000;2023-04-29T00:08:48;96440.88;;;17.96;68.44
48774;BME280;34576;0.000;0.000;2023-04-29T00:15:49;96434.22;;;17.98;68.06
48774;BME280;34576;0.000;0.000;2023-04-29T00:22:49;96429.72;;;17.99;68.45
48774;BME280;34576;0.000;0.000;2023-04-29T00:29:50;96435.03;;;17.99;68.39
48774;BME280;34576;0.000;0.000;2023-04-29T00:36:50;96443.50;;;18.01;68.58
48774;BME280;34576;0.000;0.000;2023-04-29T00:43:51;96435.03;;;17.99;68.46
48774;BME280;34576;0.000;0.000;2023-04-29T00:50:51;96435.81;;;17.99;68.61
48774;BME280;34576;0.000;0.000;2023-04-29T00:57:52;96425.94;;;18.00;68.47
48774;BME280;34576;0.000;0.000;2023-04-29T01:04:52;96424.78;;;18.11;69.10
48774;BME280;34576;0.000;0.000;2023-04-29T01:12:03;96430.97;;;18.06;68.68
48774;BME280;34576;0.000;0.000;2023-04-29T01:19:15;96424.31;;;18.04;68.21
48774;BME280;34576;0.000;0.000;2023-04-29T01:26:21;96421.66;;;18.04;68.46
48774;BME280;34576;0.000;0.000;2023-04-29T01:33:50;96429.88;;;18.07;68.46
48774;BME280;34576;0.000;0.000;2023-04-29T01:40:53;96413.63;;;18.09;68.33
48774;BME280;34576;0.000;0.000;2023-04-29T01:47:59;96420.09;;;18.03;68.54
48774;BME280;34576;0.000;0.000;2023-04-29T01:55:00;96415.56;;;18.03;68.48
48774;BME280;34576;0.000;0.000;2023-04-29T02:02:09;96411.00;;;18.04;68.23
48774;BME280;34576;0.000;0.000;2023-04-29T02:09:17;96405.69;;;18.04;68.39
48774;BME280;34576;0.000;0.000;2023-04-29T02:16:23;96414.78;;;18.03;68.42
48774;BME280;34576;0.000;0.000;2023-04-29T02:23:30;96416.34;;;18.04;68.38
48774;BME280;34576;0.000;0.000;2023-04-29T02:30:31;96423.00;;;18.01;68.43
48774;BME280;34576;0.000;0.000;2023-04-29T02:37:31;96416.63;;;18.02;68.36
48774;BME280;34576;0.000;0.000;2023-04-29T02:44:31;96419.28;;;18.02;68.76
48774;BME280;34576;0.000;0.000;2023-04-29T02:51:32;96420.34;;;18.01;68.52
48774;BME280;34576;0.000;0.000;2023-04-29T02:58:33;96416.91;;;18.01;68.44
48774;BME280;34576;0.000;0.000;2023-04-29T03:05:33;96414.78;;;18.03;68.19
48774;BME280;34576;0.000;0.000;2023-04-29T03:12:34;96419.28;;;18.02;68.33
48774;BME280;34576;0.000;0.000;2023-04-29T03:19:35;96409.97;;;18.00;68.48
48774;BME280;34576;0.000;0.000;2023-04-29T03:26:35;96411.09;;;17.99;68.04
48774;BME280;34576;0.000;0.000;2023-04-29T03:33:37;96405.22;;;17.97;68.46
48774;BME280;34576;0.000;0.000;2023-04-29T03:40:38;96399.34;;;18.00;68.39
48774;BME280;34576;0.000;0.000;2023-04-29T03:47:39;96406.25;;;18.01;68.34
48774;BME280;34576;0.000;0.000;2023-04-29T03:54:39;96411.28;;;18.02;68.45
48774;BME280;34576;0.000;0.000;2023-04-29T04:01:40;96412.16;;;17.98;68.45
48774;BME280;34576;0.000;0.000;2023-04-29T04:08:40;96407.84;;;18.02;68.22
48774;BME280;34576;0.000;0.000;2023-04-29T04:15:51;96403.88;;;17.99;68.51
48774;BME280;34576;0.000;0.000;2023-04-29T04:22:51;96410.78;;;18.00;68.34
48774;BME280;34576;0.000;0.000;2023-04-29T04:29:58;96429.72;;;17.99;68.53
48774;BME280;34576;0.000;0.000;2023-04-29T04:37:04;96427.56;;;18.01;68.28
48774;BME280;34576;0.000;0.000;2023-04-29T04:44:05;96440.06;;;18.00;68.14
48774;BME280;34576;0.000;0.000;2023-04-29T04:51:15;96441.38;;;18.03;68.04
48774;BME280;34576;0.000;0.000;2023-04-29T04:58:16;96448.84;;;18.01;68.04
48774;BME280;34576;0.000;0.000;2023-04-29T05:05:17;96461.59;;;18.04;68.22
48774;BME280;34576;0.000;0.000;2023-04-29T05:12:17;96465.84;;;18.05;68.90
48774;BME280;34576;0.000;0.000;2023-04-29T05:19:18;96473.81;;;18.05;68.26
48774;BME280;34576;0.000;0.000;2023-04-29T05:26:18;96472.75;;;18.06;69.73
48774;BME280;34576;0.000;0.000;2023-04-29T05:33:19;96478.25;;;18.15;71.05
48774;BME280;34576;0.000;0.000;2023-04-29T05:40:19;96483.03;;;18.18;71.17
48774;BME280;34576;0.000;0.000;2023-04-29T05:47:22;96494.75;;;18.17;71.26
48774;BME280;34576;0.000;0.000;2023-04-29T05:54:22;96496.84;;;18.20;71.13
48774;BME280;34576;0.000;0.000;2023-04-29T06:01:23;96514.69;;;18.19;71.43
48774;BME280;34576;0.000;0.000;2023-04-29T06:08:23;96521.06;;;18.18;71.35
48774;BME280;34576;0.000;0.000;2023-04-29T06:15:26;96527.22;;;18.19;71.50
48774;BME280;34576;0.000;0.000;2023-04-29T06:22:28;96526.94;;;18.20;71.46
48774;BME280;34576;0.000;0.000;2023-04-29T06:29:29;96537.00;;;18.23;71.31
48774;BME280;34576;0.000;0.000;2023-04-29T06:36:30;96544.84;;;17.70;70.11
48774;BME280;34576;0.000;0.000;2023-04-29T06:43:53;96546.09;;;17.33;68.99
48774;BME280;34576;0.000;0.000;2023-04-29T06:51:16;96551.97;;;17.30;68.14
48774;BME280;34576;0.000;0.000;2023-04-29T06:58:16;96554.00;;;17.48;67.42
48774;BME280;34576;0.000;0.000;2023-04-29T07:05:17;96549.44;;;17.04;67.03
48774;BME280;34576;0.000;0.000;2023-04-29T07:12:18;96557.00;;;16.40;68.96
48774;BME280;34576;0.000;0.000;2023-04-29T07:19:18;96568.69;;;16.24;69.50
48774;BME280;34576;0.000;0.000;2023-04-29T07:26:19;96568.72;;;16.13;69.80
48774;BME280;34576;0.000;0.000;2023-04-29T07:33:20;96582.50;;;16.26;69.47
48774;BME280;34576;0.000;0.000;2023-04-29T07:40:20;96581.41;;;15.96;69.08
48774;BME280;34576;0.000;0.000;2023-04-29T07:47:21;96583.03;;;16.22;67.95
48774;BME280;34576;0.000;0.000;2023-04-29T07:54:21;96590.13;;;15.70;68.84
48774;BME280;34576;0.000;0.000;2023-04-29T08:01:23;96593.59;;;15.81;67.83
48774;BME280;34576;0.000;0.000;2023-04-29T08:08:23;96596.31;;;16.28;67.75
48774;BME280;34576;0.000;0.000;2023-04-29T08:15:25;96595.44;;;16.79;65.34
48774;BME280;34576;0.000;0.000;2023-04-29T08:22:26;96597.56;;;16.82;65.29
48774;BME280;34576;0.000;0.000;2023-04-29T08:29:26;96591.47;;;16.76;65.33
48774;BME280;34576;0.000;0.000;2023-04-29T08:36:26;96585.63;;;16.89;64.07
48774;BME280;34576;0.000;0.000;2023-04-29T08:43:27;96585.47;;;17.31;63.55
48774;BME280;34576;0.000;0.000;2023-04-29T08:50:28;96575.41;;;17.28;63.31
48774;BME280;34576;0.000;0.000;2023-04-29T08:57:29;96577.06;;;17.63;64.06
48774;BME280;34576;0.000;0.000;2023-04-29T09:11:53;96574.84;;;17.75;64.37
48774;BME280;34576;0.000;0.000;2023-04-29T09:18:54;96591.63;;;17.76;64.65
48774;BME280;34576;0.000;0.000;2023-04-29T09:25:56;96598.78;;;17.81;64.78
48774;BME280;34576;0.000;0.000;2023-04-29T09:33:03;96598.50;;;17.82;64.94
48774;BME280;34576;0.000;0.000;2023-04-29T09:40:04;96595.84;;;17.82;65.12
48774;BME280;34576;0.000;0.000;2023-04-29T09:47:06;96605.94;;;17.85;65.31
48774;BME280;34576;0.000;0.000;2023-04-29T09:54:18;96610.69;;;17.88;65.34
48774;BME280;34576;0.000;0.000;2023-04-29T10:01:19;96605.66;;;17.92;65.54
48774;BME280;34576;0.000;0.000;2023-04-29T10:08:21;96614.97;;;17.94;65.38
48774;BME280;34576;0.000;0.000;2023-04-29T10:15:26;96608.03;;;17.93;65.40
48774;BME280;34576;0.000;0.000;2023-04-29T10:22:28;96609.66;;;17.94;65.76
48774;BME280;34576;0.000;0.000;2023-04-29T10:29:32;96603.75;;;17.98;65.68
48774;BME280;34576;0.000;0.000;2023-04-29T10:36:34;96587.78;;;17.98;65.60
48774;BME280;34576;0.000;0.000;2023-04-29T10:43:36;96596.00;;;18.01;65.73
48774;BME280;34576;0.000;0.000;2023-04-29T10:50:58;96594.66;;;18.04;66.00
48774;BME280;34576;0.000;0.000;2023-04-29T10:57:59;96597.56;;;18.07;65.98
48774;BME280;34576;0.000;0.000;2023-04-29T11:05:09;96584.78;;;18.09;66.12
48774;BME280;34576;0.000;0.000;2023-04-29T11:12:09;96582.38;;;18.13;66.28
48774;BME280;34576;0.000;0.000;2023-04-29T11:19:13;96577.03;;;18.13;66.29
48774;BME280;34576;0.000;0.000;2023-04-29T11:26:13;96575.69;;;18.16;66.47
48774;BME280;34576;0.000;0.000;2023-04-29T11:33:14;96579.13;;;18.16;66.63
48774;BME280;34576;0.000;0.000;2023-04-29T11:40:14;96576.44;;;18.21;66.48
48774;BME280;34576;0.000;0.000;2023-04-29T11:47:15;96568.41;;;18.26;66.61
48774;BME280;34576;0.000;0.000;2023-04-29T11:54:16;96573.22;;;18.24;66.70
48774;BME280;34576;0.000;0.000;2023-04-29T12:01:16;96568.19;;;18.23;67.07
48774;BME280;34576;0.000;0.000;2023-04-29T12:08:22;96559.84;;;18.29;66.84
48774;BME280;34576;0.000;0.000;2023-04-29T12:15:23;96561.47;;;18.25;67.34
48774;BME280;34576;0.000;0.000;2023-04-29T12:22:29;96564.72;;;18.22;67.89
48774;BME280;34576;0.000;0.000;2023-04-29T12:29:30;96571.13;;;18.21;68.12
48774;BME280;34576;0.000;0.000;2023-04-29T12:36:32;96563.13;;;18.21;68.15
48774;BME280;34576;0.000;0.000;2023-04-29T12:43:33;96570.03;;;18.22;68.24
48774;BME280;34576;0.000;0.000;2023-04-29T12:50:34;96575.34;;;18.22;68.35
48774;BME280;34576;0.000;0.000;2023-04-29T12:57:35;96568.97;;;18.23;68.38
48774;BME280;34576;0.000;0.000;2023-04-29T13:04:36;96577.44;;;18.25;68.57
48774;BME280;34576;0.000;0.000;2023-04-29T13:11:37;96568.41;;;18.26;69.00
48774;BME280;34576;0.000;0.000;2023-04-29T13:18:38;96583.03;;;18.29;68.95
48774;BME280;34576;0.000;0.000;2023-04-29T13:25:38;96573.97;;;18.30;68.54
48774;BME280;34576;0.000;0.000;2023-04-29T13:32:38;96567.06;;;18.29;68.13
48774;BME280;34576;0.000;0.000;2023-04-29T13:39:39;96575.78;;;18.35;66.03
48774;BME280;34576;0.000;0.000;2023-04-29T13:46:40;96576.22;;;18.13;56.89
48774;BME280;34576;0.000;0.000;2023-04-29T13:53:40;96567.78;;;18.40;60.68
48774;BME280;34576;0.000;0.000;2023-04-29T14:00:41;96574.78;;;17.96;55.82
48774;BME280;34576;0.000;0.000;2023-04-29T14:07:42;96573.50;;;18.23;60.99
48774;BME280;34576;0.000;0.000;2023-04-29T14:14:42;96578.06;;;18.17;60.01
48774;BME280;34576;0.000;0.000;2023-04-29T14:21:42;96581.31;;;18.09;58.67
48774;BME280;34576;0.000;0.000;2023-04-29T14:28:43;96576.63;;;18.30;59.59
48774;BME280;34576;0.000;0.000;2023-04-29T14:35:43;96567.03;;;18.34;60.01
48774;BME280;34576;0.000;0.000;2023-04-29T14:42:43;96581.59;;;18.42;60.58
48774;BME280;34576;0.000;0.000;2023-04-29T14:49:43;96592.34;;;18.32;59.05
48774;BME280;34576;0.000;0.000;2023-04-29T14:56:44;96604.06;;;18.31;60.68
48774;BME280;34576;0.000;0.000;2023-04-29T15:03:44;96604.31;;;18.34;60.21
48774;BME280;34576;0.000;0.000;2023-04-29T15:10:45;96606.69;;;18.36;59.70
48774;BME280;34576;0.000;0.000;2023-04-29T15:17:46;96602.16;;;18.31;59.48
48774;BME280;34576;0.000;0.000;2023-04-29T15:24:46;96604.91;;;18.26;56.52
48774;BME280;34576;0.000;0.000;2023-04-29T15:31:47;96605.06;;;18.40;59.66
48774;BME280;34576;0.000;0.000;2023-04-29T15:38:47;96604.50;;;18.43;60.44
48774;BME280;34576;0.000;0.000;2023-04-29T15:45:48;96617.81;;;18.43;61.21
48774;BME280;34576;0.000;0.000;2023-04-29T15:52:48;96623.13;;;18.43;61.61
48774;BME280;34576;0.000;0.000;2023-04-29T15:59:54;96615.94;;;18.43;62.11
48774;BME280;34576;0.000;0.000;2023-04-29T16:06:55;96626.84;;;18.47;62.32
48774;BME280;34576;0.000;0.000;2023-04-29T16:13:55;96633.25;;;18.41;62.99
48774;BME280;34576;0.000;0.000;2023-04-29T16:20:56;96631.13;;;18.43;63.27
48774;BME280;34576;0.000;0.000;2023-04-29T16:27:56;96641.22;;;18.46;63.14
48774;BME280;34576;0.000;0.000;2023-04-29T16:34:56;96639.13;;;18.43;63.59
48774;BME280;34576;0.000;0.000;2023-04-29T16:41:57;96647.88;;;18.43;63.65
48774;BME280;34576;0.000;0.000;2023-04-29T16:48:58;96647.88;;;18.43;63.90
48774;BME280;34576;0.000;0.000;2023-04-29T16:55:58;96648.69;;;18.44;64.17
48774;BME280;34576;0.000;0.000;2023-04-29T17:02:59;96657.47;;;18.44;64.22
48774;BME280;34576;0.000;0.000;2023-04-29T17:09:59;96664.66;;;18.44;64.52
48774;BME280;34576;0.000;0.000;2023-04-29T17:17:00;96664.66;;;18.44;64.56
48774;BME280;34576;0.000;0.000;2023-04-29T17:24:00;96665.75;;;18.43;64.91
48774;BME280;34576;0.000;0.000;2023-04-29T17:31:00;96674.81;;;18.42;64.74
48774;BME280;34576;0.000;0.000;2023-04-29T17:38:01;96677.47;;;18.42;64.81
48774;BME280;34576;0.000;0.000;2023-04-29T17:45:01;96682.78;;;18.42;64.98
48774;BME280;34576;0.000;0.000;2023-04-29T17:52:02;96688.91;;;18.42;64.72
48774;BME280;34576;0.000;0.000;2023-04-29T17:59:03;96694.22;;;18.42;64.89
48774;BME280;34576;0.000;0.000;2023-04-29T18:06:08;96698.78;;;18.42;65.00
48774;BME280;34576;0.000;0.000;2023-04-29T18:13:09;96704.09;;;18.42;64.82
48774;BME280;34576;0.000;0.000;2023-04-29T18:20:09;96709.09;;;18.09;59.24
48774;BME280;34576;0.000;0.000;2023-04-29T18:27:10;96701.47;;;18.37;62.99
48774;BME280;34576;0.000;0.000;2023-04-29T18:34:11;96707.03;;;18.40;63.78
48774;BME280;34576;0.000;0.000;2023-04-29T18:41:11;96708.91;;;18.40;64.08
48774;BME280;34576;0.000;0.000;2023-04-29T18:48:12;96710.22;;;18.42;64.25
48774;BME280;34576;0.000;0.000;2023-04-29T18:55:12;96710.22;;;18.42;64.34
48774;BME280;34576;0.000;0.000;2023-04-29T19:02:13;96707.53;;;18.42;64.46
48774;BME280;34576;0.000;0.000;2023-04-29T19:09:13;96721.69;;;18.43;64.50
48774;BME280;34576;0.000;0.000;2023-04-29T19:16:14;96737.66;;;18.43;64.72
48774;BME280;34576;0.000;0.000;2023-04-29T19:23:14;96743.00;;;18.43;64.81
48774;BME280;34576;0.000;0.000;2023-04-29T19:30:15;96743.50;;;18.45;64.69
48774;BME280;34576;0.000;0.000;2023-04-29T19:37:15;96746.16;;;18.45;64.98
48774;BME280;34576;0.000;0.000;2023-04-29T19:44:16;96756.03;;;18.44;64.90
48774;BME280;34576;0.000;0.000;2023-04-29T19:51:16;96752.31;;;18.45;64.71
48774;BME280;34576;0.000;0.000;2023-04-29T19:58:16;96755.75;;;18.46;64.97
48774;BME280;34576;0.000;0.000;2023-04-29T20:05:17;96754.97;;;18.45;64.92
48774;BME280;34576;0.000;0.000;2023-04-29T20:12:18;96762.66;;;18.47;64.80
48774;BME280;34576;0.000;0.000;2023-04-29T20:19:18;96761.59;;;18.48;64.63
48774;BME280;34576;0.000;0.000;2023-04-29T20:26:19;96763.47;;;18.48;64.51
48774;BME280;34576;0.000;0.000;2023-04-29T20:33:19;96768.00;;;18.47;64.45
48774;BME280;34576;0.000;0.000;2023-04-29T20:40:20;96765.34;;;18.47;64.38
48774;BME280;34576;0.000;0.000;2023-04-29T20:47:20;96764.53;;;18.46;64.43
48774;BME280;34576;0.000;0.000;2023-04-29T20:54:20;96765.34;;;18.47;64.22
48774;BME280;34576;0.000;0.000;2023-04-29T21:01:20;96777.56;;;18.48;64.37
48774;BME280;34576;0.000;0.000;2023-04-29T21:08:21;96768.28;;;18.45;64.29
48774;BME280;34576;0.000;0.000;2023-04-29T21:15:21;96778.66;;;18.47;64.50
48774;BME280;34576;0.000;0.000;2023-04-29T21:22:22;96777.00;;;18.51;64.24
48774;BME280;34576;0.000;0.000;2023-04-29T21:29:23;96781.28;;;18.52;64.96
48774;BME280;34576;0.000;0.000;2023-04-29T21:36:23;96782.13;;;18.42;66.82
48774;BME280;34576;0.000;0.000;2023-04-29T21:43:24;96779.47;;;18.42;66.67
48774;BME280;34576;0.000;0.000;2023-04-29T21:50:26;96787.44;;;18.42;66.82
48774;BME280;34576;0.000;0.000;2023-04-29T21:57:26;96789.31;;;18.42;67.09
48774;BME280;34576;0.000;0.000;2023-04-29T22:04:27;96782.94;;;18.43;67.08
48774;BME280;34576;0.000;0.000;2023-04-29T22:11:27;96776.00;;;18.42;66.65
48774;BME280;34576;0.000;0.000;2023-04-29T22:18:28;96783.22;;;18.41;66.76
48774;BME280;34576;0.000;0.000;2023-04-29T22:25:28;96774.13;;;18.48;66.45
48774;BME280;34576;0.000;0.000;2023-04-29T22:32:28;96776.47;;;18.54;66.87
48774;BME280;34576;0.000;0.000;2023-04-29T22:39:28;96774.88;;;18.53;66.95
48774;BME280;34576;0.000;0.000;2023-04-29T22:46:29;96780.44;;;18.57;66.73
48774;BME280;34576;0.000;0.000;2023-04-29T22:53:29;96782.31;;;18.56;66.58
48774;BME280;34576;0.000;0.000;2023-04-29T23:00:29;96783.09;;;18.57;66.85
48774;BME280;34576;0.000;0.000;2023-04-29T23:07:30;96788.19;;;18.58;66.48
48774;BME280;34576;0.000;0.000;2023-04-29T23:14:30;96776.75;;;18.53;65.59
48774;BME280;34576;0.000;0.000;2023-04-29T23:21:30;96786.09;;;18.50;66.48
48774;BME280;34576;0.000;0.000;2023-04-29T23:28:31;96795.41;;;18.48;66.98
48774;BME280;34576;0.000;0.000;2023-04-29T23:35:31;96792.22;;;18.51;66.48
48774;BME280;34576;0.000;0.000;2023-04-29T23:42:32;96794.34;;;18.49;66.61
48774;BME280;34576;0.000;0.000;2023-04-29T23:49:32;96791.41;;;18.50;66.73
48774;BME280;34576;0.000;0.000;2023-04-29T23:56:33;96784.50;;;18.49;66.82
